createdAt,value
2023-01-20T04:47:36.042Z,18.60
2023-01-20T04:50:40.328Z,19.73
2023-01-20T04:56:45.394Z,15.68
2023-01-20T04:59:47.820Z,15.73
2023-01-20T05:02:51.027Z,15.40
2023-01-20T05:05:54.326Z,14.90
2023-01-20T05:08:57.263Z,16.12
2023-01-20T05:11:59.782Z,16.50
2023-01-20T05:15:02.658Z,16.67
2023-01-20T05:18:05.995Z,14.75
2023-01-20T05:21:08.942Z,16.77
2023-01-20T05:24:11.941Z,14.23
2023-01-20T05:27:14.682Z,15.48
2023-01-20T05:30:17.183Z,16.10
2023-01-20T05:33:20.218Z,14.40
2023-01-20T05:36:22.680Z,15.17
2023-01-20T05:39:25.510Z,14.23
2023-01-20T05:42:28.386Z,12.45
2023-01-20T05:48:34.995Z,13.57
2023-01-20T05:51:37.882Z,18.58
2023-01-20T05:54:40.318Z,13.30
2023-01-20T05:57:43.098Z,15.27
2023-01-20T06:00:45.517Z,11.93
2023-01-20T06:03:48.483Z,17.45
2023-01-20T06:06:50.836Z,13.50
2023-01-20T06:09:53.508Z,13.63
2023-01-20T06:12:56.682Z,16.98
2023-01-20T06:15:59.445Z,11.63
2023-01-20T06:19:01.965Z,13.03
2023-01-20T06:22:04.717Z,14.70
2023-01-20T06:25:07.461Z,15.05
2023-01-20T06:28:10.185Z,16.05
2023-01-20T06:31:15.395Z,15.10
2023-01-20T06:34:18.230Z,13.77
2023-01-20T06:37:20.654Z,14.10
2023-01-20T06:40:24.234Z,14.52
2023-01-20T06:43:29.869Z,14.55
2023-01-20T06:46:32.619Z,17.45
2023-01-20T06:49:35.043Z,15.05
2023-01-20T06:52:38.012Z,15.45
2023-01-20T06:55:40.641Z,15.65
2023-01-20T06:58:43.410Z,14.10
2023-01-20T07:01:47.311Z,13.52
2023-01-20T07:04:52.774Z,14.35
2023-01-20T07:07:55.188Z,16.12
2023-01-20T07:10:57.937Z,12.70
2023-01-20T07:14:01.152Z,10.13
2023-01-20T07:17:04.055Z,13.07
2023-01-20T07:20:07.058Z,14.33
2023-01-20T07:23:09.854Z,14.65
2023-01-20T07:26:18.370Z,14.52
2023-01-20T07:29:21.255Z,15.15
2023-01-20T07:32:23.978Z,14.63
2023-01-20T07:35:28.055Z,11.00
2023-01-20T07:38:30.648Z,13.35
2023-01-20T07:41:37.353Z,13.85
2023-01-20T07:44:39.957Z,13.00
2023-01-20T07:47:42.840Z,13.15
2023-01-20T07:50:45.325Z,11.82
2023-01-20T07:53:51.554Z,13.83
2023-01-20T07:56:54.238Z,16.17
2023-01-20T07:59:57.177Z,15.18
2023-01-20T08:02:59.550Z,15.02
2023-01-20T08:06:07.459Z,14.37
2023-01-20T08:09:12.193Z,15.00
2023-01-20T08:12:14.978Z,14.00
2023-01-20T08:15:17.694Z,13.02
2023-01-20T08:18:20.784Z,15.48
2023-01-20T08:21:26.160Z,13.70
2023-01-20T08:24:29.457Z,17.83
2023-01-20T08:27:32.191Z,13.27
2023-01-20T08:30:35.295Z,15.17
2023-01-20T08:33:38.705Z,14.75
2023-01-20T08:39:44.374Z,13.98
2023-01-20T08:42:47.231Z,14.30
2023-01-20T08:46:01.805Z,16.25
2023-01-20T08:49:09.350Z,14.90
2023-01-20T08:52:12.596Z,13.05
2023-01-20T08:55:15.572Z,15.30
2023-01-20T08:58:18.152Z,17.20
2023-01-20T09:01:24.304Z,16.85
2023-01-20T09:04:26.798Z,19.52
2023-01-20T09:07:29.906Z,15.40
2023-01-20T09:10:33.787Z,16.13
2023-01-20T09:13:36.703Z,15.75
2023-01-20T09:16:40.183Z,18.50
2023-01-20T09:19:42.939Z,15.00
2023-01-20T09:22:45.350Z,17.37
2023-01-20T09:25:48.329Z,11.93
2023-01-20T09:28:51.543Z,13.15
2023-01-20T09:31:59.286Z,16.70
2023-01-20T09:35:02.208Z,19.00
2023-01-20T09:38:24.546Z,14.65
2023-01-20T09:41:48.412Z,13.18
2023-01-20T09:45:25.140Z,14.10
2023-01-20T09:49:07.024Z,15.35
2023-01-20T09:52:48.282Z,15.82
2023-01-20T09:55:56.755Z,15.05
2023-01-20T09:59:14.854Z,12.98
2023-01-20T10:02:23.725Z,14.70
2023-01-20T10:05:33.881Z,13.73
2023-01-20T10:08:59.638Z,12.37
2023-01-20T10:12:18.162Z,14.07
2023-01-20T10:15:20.535Z,14.48
2023-01-20T10:18:48.112Z,17.40
2023-01-20T10:22:15.784Z,13.88
2023-01-20T10:25:41.156Z,13.13
2023-01-20T10:28:49.564Z,14.63
2023-01-20T10:31:59.977Z,13.25
2023-01-20T10:35:22.382Z,14.32
2023-01-20T10:38:40.928Z,14.73
2023-01-20T10:41:52.448Z,10.85
2023-01-20T10:44:55.655Z,15.23
2023-01-20T10:48:19.776Z,11.18
2023-01-20T10:52:07.145Z,11.05
2023-01-20T10:55:31.189Z,11.55
2023-01-20T10:58:37.749Z,11.02
2023-01-20T11:01:41.736Z,16.52
2023-01-20T11:04:49.454Z,14.65
2023-01-20T11:07:54.161Z,13.40
2023-01-20T11:11:00.025Z,15.50
2023-01-20T11:14:03.868Z,9.32
2023-01-20T11:17:12.843Z,15.50
2023-01-20T11:20:21.454Z,12.70
2023-01-20T11:23:37.851Z,9.98
2023-01-20T11:26:40.339Z,11.52
2023-01-20T11:29:48.800Z,11.70
2023-01-20T11:33:18.006Z,11.48
2023-01-20T11:36:23.854Z,11.23
2023-01-20T11:39:30.734Z,12.98
2023-01-20T11:42:44.911Z,11.43
2023-01-20T11:48:50.297Z,11.10
2023-01-20T11:51:55.493Z,11.00
2023-01-20T11:55:10.127Z,11.75
2023-01-20T11:58:18.709Z,8.93
2023-01-20T12:01:27.647Z,9.63
2023-01-20T12:04:52.845Z,9.35
2023-01-20T12:07:56.548Z,9.52
2023-01-20T12:11:03.255Z,11.57
2023-01-20T12:14:22.987Z,9.35
2023-01-20T12:17:47.470Z,11.02
2023-01-20T12:21:00.127Z,12.25
2023-01-20T12:24:25.023Z,9.67
2023-01-20T12:27:33.849Z,11.38
2023-01-20T12:30:59.367Z,12.77
2023-01-20T12:34:03.534Z,12.55
2023-01-20T12:37:45.483Z,12.43
2023-01-20T12:40:51.664Z,14.27
2023-01-20T12:44:15.730Z,10.52
2023-01-20T12:47:25.712Z,12.88
2023-01-20T12:50:34.912Z,10.60
2023-01-20T12:54:00.780Z,11.32
2023-01-20T12:57:35.679Z,13.13
2023-01-20T13:00:58.403Z,13.20
2023-01-20T13:04:26.114Z,12.00
2023-01-20T13:07:47.781Z,18.23
2023-01-20T13:11:04.124Z,15.95
2023-01-20T13:14:12.999Z,18.02
2023-01-20T13:17:36.824Z,17.85
2023-01-20T13:20:42.902Z,15.25
2023-01-20T13:23:46.272Z,16.08
2023-01-20T13:26:49.682Z,18.80
2023-01-20T13:29:56.764Z,14.60
2023-01-20T13:33:13.188Z,14.10
2023-01-20T13:36:17.863Z,16.62
2023-01-20T13:39:41.395Z,18.35
2023-01-20T13:42:44.403Z,14.90
2023-01-20T13:45:46.825Z,14.55
2023-01-20T13:49:20.474Z,14.57
2023-01-20T13:52:52.491Z,17.80
2023-01-20T13:55:58.218Z,17.73
2023-01-20T13:59:00.939Z,19.37
2023-01-20T14:02:18.454Z,17.67
2023-01-20T14:05:30.596Z,19.42
2023-01-20T14:08:42.322Z,17.70
2023-01-20T14:11:57.611Z,18.17
2023-01-20T14:15:00.815Z,24.00
2023-01-20T14:18:04.834Z,20.37
2023-01-20T14:21:16.482Z,21.42
2023-01-20T14:24:36.455Z,21.35
2023-01-20T14:27:42.017Z,31.33
2023-01-20T14:30:44.838Z,20.58
2023-01-20T14:34:01.937Z,22.02
2023-01-20T14:37:39.403Z,20.67
2023-01-20T14:40:43.004Z,19.85
2023-01-20T14:43:45.661Z,20.00
2023-01-20T14:46:51.272Z,19.55
2023-01-20T14:49:54.895Z,18.62
2023-01-20T14:52:57.932Z,17.37
2023-01-20T14:56:02.890Z,19.67
2023-01-20T14:59:15.832Z,19.27
2023-01-20T15:02:29.285Z,16.48
2023-01-20T15:05:37.542Z,18.73
2023-01-20T15:08:40.861Z,15.25
2023-01-20T15:11:45.848Z,18.47
2023-01-20T15:15:08.743Z,19.50
2023-01-20T15:18:11.301Z,15.00
2023-01-20T15:21:45.939Z,17.55
2023-01-20T15:27:54.117Z,18.17
2023-01-20T15:30:59.092Z,19.83
2023-01-20T15:34:02.327Z,17.75
2023-01-20T15:37:17.041Z,18.80
2023-01-20T15:40:23.671Z,21.95
2023-01-20T15:43:26.473Z,19.05
2023-01-20T15:46:29.163Z,19.90
2023-01-20T15:49:31.544Z,17.30
2023-01-20T15:52:34.368Z,20.43
2023-01-20T15:55:42.281Z,20.17
2023-01-20T15:58:46.791Z,17.75
2023-01-20T16:04:54.676Z,19.45
2023-01-20T16:07:57.144Z,17.45
2023-01-20T16:10:59.821Z,19.33
2023-01-20T16:14:02.260Z,17.65
2023-01-20T16:17:12.862Z,18.87
2023-01-20T16:20:22.394Z,16.73
2023-01-20T16:23:25.134Z,21.90
2023-01-20T16:26:29.013Z,19.83
2023-01-20T16:29:31.646Z,19.02
